Main page
METAR-TAF:

METAR-TAF

Airports :

Columbus Municipal Airport

Columbus, Nebraska, United States

latitude: 41-27N, longitude: 097-20W, elevation: 1443 ft

Current weather observation

The report was made 24 minutes ago, at 01:56 UTC
Wind 7 mph from the East/Northeast
Temperature 59°F
Humidity 82%
Pressure 29.72 in. Hg
Visibility: 10 miles
Clear sky

METAR: KOLU 070156Z AUTO 06006KT 10SM CLR 15/12 A2972 RMK AO2 SLP063 T01500117

Time: 21:20 (02:20 UTC)


TAF: missing

Weather observations and forecasts of more than 4000 airports (METAR and TAF reports).

The available stations are represented by yellow and red dots on the map.

Hover mouse over dot to see the name of the station.

Then click to see weather observations and forecasts.

To change the map : click on the green buttons with a black cross to zoom in, on the green button with a dash to zoom out, or on the green arrows for adjacent maps.


METAR-TAF: